Time;durP1;ratioP1;P1;durP2;ratioP2;P2;SDS_P1;SDS_P2;PMS_P1;PMS_P2;Temp;Humidity;BMP_temperature;BMP_pressure;BME280_temperature;BME280_humidity;BME280_pressure;Samples;Min_cycle;Max_cycle;Signal;HPM_P1;HPM_P2
2022/09/11 00:01:39;;;;;;;0.50;0.43;;;;;;;21.66;100.00;95051.22;5113352;28;20422;-57
2022/09/11 00:04:07;;;;;;;0.57;0.57;;;;;;;21.71;100.00;95058.28;5113518;28;20488;-57
2022/09/11 00:06:36;;;;;;;0.40;0.30;;;;;;;21.32;100.00;95058.03;5113448;28;20427;-57
2022/09/11 00:09:06;;;;;;;0.50;0.30;;;;;;;21.58;100.00;95052.16;5113176;27;20428;-57
2022/09/11 00:11:39;;;;;;;0.40;0.30;;;;;;;21.67;100.00;95062.81;5113021;28;20420;-58
2022/09/11 00:14:09;;;;;;;0.67;0.40;;;;;;;21.74;100.00;95052.19;5113102;28;20759;-57
2022/09/11 00:16:40;;;;;;;0.60;0.50;;;;;;;21.78;100.00;95053.09;5113364;28;20813;-57
2022/09/11 00:19:11;;;;;;;0.70;0.43;;;;;;;21.53;100.00;95050.50;5113238;27;20858;-57
2022/09/11 00:21:40;;;;;;;1.60;0.50;;;;;;;21.42;100.00;95049.47;5113250;28;20423;-57
2022/09/11 00:24:09;;;;;;;1.97;0.47;;;;;;;21.60;100.00;95051.84;5113247;28;20439;-58
2022/09/11 00:26:39;;;;;;;0.40;0.30;;;;;;;21.65;100.00;95047.00;5113214;28;20420;-57
2022/09/11 00:29:08;;;;;;;0.50;0.30;;;;;;;21.64;100.00;95047.31;5112757;28;20439;-57
2022/09/11 00:31:36;;;;;;;0.50;0.50;;;;;;;21.68;100.00;95046.28;5113168;28;20790;-57
2022/09/11 00:34:05;;;;;;;0.70;0.70;;;;;;;21.60;100.00;95055.31;5112619;28;20467;-57
2022/09/11 00:36:35;;;;;;;0.50;0.40;;;;;;;21.69;100.00;95060.56;5112818;28;20439;-57
2022/09/11 00:39:04;;;;;;;0.50;0.50;;;;;;;21.11;100.00;94976.56;5112570;28;20471;-57
2022/09/11 00:41:35;;;;;;;0.63;0.63;;;;;;;21.68;100.00;95056.31;5112943;28;20924;-57
2022/09/11 00:44:07;;;;;;;0.40;0.30;;;;;;;21.50;100.00;95050.44;5112811;28;20434;-57
2022/09/11 00:46:40;;;;;;;0.40;0.20;;;;;;;21.25;100.00;95057.06;5112863;28;20430;-57
2022/09/11 00:49:23;;;;;;;0.40;0.20;;;;;;;21.11;100.00;95054.72;5112766;28;20431;-57
2022/09/11 00:51:55;;;;;;;4.40;0.73;;;;;;;21.34;100.00;95049.59;5112502;28;20427;-57
2022/09/11 00:54:29;;;;;;;0.40;0.20;;;;;;;21.40;100.00;95051.69;5112529;28;20423;-57
2022/09/11 00:57:00;;;;;;;0.40;0.30;;;;;;;21.37;100.00;95062.38;5112485;28;20459;-58
2022/09/11 00:59:31;;;;;;;0.40;0.30;;;;;;;21.34;100.00;95063.06;5112603;28;20841;-57
2022/09/11 01:02:00;;;;;;;0.40;0.20;;;;;;;21.28;100.00;95051.75;5112685;28;20780;-57
2022/09/11 01:04:28;;;;;;;0.60;0.37;;;;;;;21.32;100.00;95049.16;5112589;28;20434;-57
2022/09/11 01:06:59;;;;;;;0.40;0.30;;;;;;;21.35;100.00;95049.25;5112182;28;20419;-57
2022/09/11 01:09:30;;;;;;;0.40;0.20;;;;;;;21.33;100.00;95046.09;5111885;28;20432;-57
2022/09/11 01:12:08;;;;;;;0.40;0.30;;;;;;;21.03;100.00;95044.84;5111408;28;20416;-58
2022/09/11 01:14:47;;;;;;;5.10;0.33;;;;;;;21.15;100.00;95055.59;5112204;28;20792;-58
2022/09/11 01:17:24;;;;;;;0.60;0.40;;;;;;;21.10;100.00;95058.53;5111935;28;20446;-58
2022/09/11 01:20:16;;;;;;;0.70;0.43;;;;;;;21.22;100.00;95050.44;5111771;28;20473;-58
2022/09/11 01:23:06;;;;;;;0.53;0.53;;;;;;;21.19;100.00;95059.19;5095455;28;20439;-58
2022/09/11 01:25:52;;;;;;;0.50;0.33;;;;;;;21.19;100.00;95061.09;5109725;28;20447;-59
2022/09/11 01:28:26;;;;;;;0.80;0.60;;;;;;;21.17;100.00;95039.91;5112019;28;20871;-59
2022/09/11 01:31:01;;;;;;;0.57;0.30;;;;;;;21.20;100.00;95049.97;5112056;28;20410;-59
2022/09/11 01:33:35;;;;;;;0.40;0.30;;;;;;;20.84;100.00;95055.44;5111759;28;20427;-59
2022/09/11 01:36:08;;;;;;;0.53;0.40;;;;;;;20.72;100.00;95048.16;5111671;28;20430;-59
2022/09/11 01:38:42;;;;;;;0.50;0.37;;;;;;;20.89;100.00;95047.91;5111721;28;20424;-59
2022/09/11 01:41:16;;;;;;;0.40;0.30;;;;;;;21.00;100.00;95053.59;5111830;28;20423;-59
2022/09/11 01:43:51;;;;;;;0.50;0.30;;;;;;;20.87;100.00;95054.78;5112297;28;20411;-59
2022/09/11 01:46:24;;;;;;;0.40;0.30;;;;;;;20.82;100.00;95047.69;5111521;28;20459;-59
2022/09/11 01:48:59;;;;;;;0.40;0.23;;;;;;;20.88;100.00;95050.94;5111623;28;20442;-59
2022/09/11 01:51:31;;;;;;;0.40;0.20;;;;;;;20.68;100.00;95043.78;5111920;28;20426;-59
2022/09/11 01:54:01;;;;;;;0.60;0.60;;;;;;;20.84;100.00;95040.06;5111886;28;20427;-59
2022/09/11 01:56:35;;;;;;;0.43;0.27;;;;;;;20.63;100.00;95046.72;5111648;28;20471;-59
2022/09/11 01:59:09;;;;;;;1.70;0.47;;;;;;;19.86;100.00;95043.09;5111430;28;20411;-59
2022/09/11 02:01:41;;;;;;;0.70;0.50;;;;;;;19.61;100.00;95055.69;5111591;28;20419;-59
2022/09/11 02:04:14;;;;;;;0.83;0.40;;;;;;;19.78;100.00;95046.69;5111482;28;20514;-59
2022/09/11 02:06:46;;;;;;;0.50;0.30;;;;;;;19.80;100.00;95049.81;5111619;28;20423;-59
2022/09/11 02:09:20;;;;;;;0.50;0.30;;;;;;;19.94;100.00;95044.88;5111734;28;20415;-59
2022/09/11 02:11:54;;;;;;;0.50;0.40;;;;;;;20.27;100.00;95045.63;5111737;28;20419;-59
2022/09/11 02:14:30;;;;;;;0.50;0.40;;;;;;;19.85;100.00;94984.25;5111705;28;20442;-59
2022/09/11 02:17:07;;;;;;;0.40;0.30;;;;;;;20.27;100.00;95052.91;5111690;28;20498;-59
2022/09/11 02:19:39;;;;;;;0.40;0.30;;;;;;;20.24;100.00;95051.66;5111537;28;20496;-59
2022/09/11 02:22:08;;;;;;;0.40;0.30;;;;;;;20.31;100.00;95051.13;5111370;28;20419;-59
2022/09/11 02:24:36;;;;;;;0.50;0.40;;;;;;;20.40;100.00;95041.03;5113801;28;20999;-59
2022/09/11 02:27:07;;;;;;;0.50;0.30;;;;;;;20.46;100.00;95042.38;5115030;28;20427;-59
2022/09/11 02:29:38;;;;;;;1.07;1.07;;;;;;;20.38;100.00;95045.16;5114820;28;20460;-58
2022/09/11 02:32:09;;;;;;;0.50;0.40;;;;;;;20.16;100.00;95049.84;5115163;28;20427;-60
2022/09/11 02:34:40;;;;;;;0.50;0.50;;;;;;;19.84;100.00;95047.22;5114621;28;20427;-59
2022/09/11 02:37:19;;;;;;;0.60;0.30;;;;;;;20.10;100.00;95053.88;5114814;28;20436;-60
2022/09/11 02:40:09;;;;;;;0.40;0.20;;;;;;;20.16;100.00;95057.91;5115331;27;20458;-59
2022/09/11 02:42:48;;;;;;;0.47;0.37;;;;;;;19.97;100.00;95055.00;5115092;28;20442;-60
2022/09/11 02:45:31;;;;;;;0.40;0.30;;;;;;;20.10;100.00;95053.88;5114771;28;20481;-59
2022/09/11 02:48:15;;;;;;;0.70;0.30;;;;;;;19.85;100.00;95052.28;5114810;28;20419;-60
2022/09/11 02:50:51;;;;;;;0.60;0.50;;;;;;;20.07;100.00;95059.94;5114650;28;20936;-59
2022/09/11 02:53:25;;;;;;;0.40;0.30;;;;;;;20.24;100.00;95057.06;5114800;28;20418;-59
2022/09/11 02:56:01;;;;;;;0.60;0.40;;;;;;;20.20;100.00;95061.53;5114353;28;20927;-59
2022/09/11 02:58:35;;;;;;;0.67;0.67;;;;;;;19.87;100.00;95066.19;5114556;28;20426;-59
2022/09/11 03:01:08;;;;;;;0.40;0.30;;;;;;;19.99;100.00;95054.66;5114465;27;20876;-59
2022/09/11 03:03:40;;;;;;;0.50;0.30;;;;;;;19.71;100.00;95057.16;5114748;28;20831;-59
2022/09/11 03:06:14;;;;;;;2.10;0.57;;;;;;;19.37;100.00;94976.91;5114855;28;20474;-59
2022/09/11 03:08:42;;;;;;;0.50;0.40;;;;;;;19.91;100.00;95050.94;5114300;27;20432;-59
2022/09/11 03:11:10;;;;;;;0.50;0.30;;;;;;;19.70;100.00;95025.25;5114328;27;20423;-59
2022/09/11 03:13:39;;;;;;;0.57;0.43;;;;;;;19.68;100.00;95057.84;5114421;28;20893;-59
2022/09/11 03:16:08;;;;;;;0.60;0.60;;;;;;;19.81;100.00;95054.06;5114158;28;20430;-60
2022/09/11 03:18:37;;;;;;;0.90;0.40;;;;;;;19.89;100.00;95050.50;5114548;28;20888;-59
2022/09/11 03:21:05;;;;;;;0.60;0.60;;;;;;;20.02;100.00;95062.06;5114111;28;20470;-59
2022/09/11 03:23:34;;;;;;;0.50;0.50;;;;;;;19.93;100.00;95058.69;5114347;28;20890;-60
2022/09/11 03:26:02;;;;;;;1.33;0.70;;;;;;;19.87;100.00;95051.94;5114084;28;20420;-59
2022/09/11 03:28:31;;;;;;;0.50;0.37;;;;;;;19.83;100.00;95059.13;5113927;28;20431;-59
2022/09/11 03:30:59;;;;;;;0.40;0.20;;;;;;;19.76;100.00;95070.41;5113936;27;20435;-61
2022/09/11 03:33:29;;;;;;;0.50;0.30;;;;;;;19.76;100.00;95067.72;5113909;28;20423;-59
2022/09/11 03:35:58;;;;;;;0.40;0.20;;;;;;;19.68;100.00;95068.63;5113334;27;20416;-59
2022/09/11 03:38:26;;;;;;;0.87;0.57;;;;;;;19.45;100.00;95076.28;5113790;27;20435;-59
2022/09/11 03:40:55;;;;;;;0.40;0.30;;;;;;;19.64;100.00;95071.16;5113694;28;20876;-59
2022/09/11 03:43:23;;;;;;;0.60;0.60;;;;;;;19.73;100.00;95070.31;5114039;28;20826;-59
2022/09/11 03:45:52;;;;;;;0.60;0.40;;;;;;;19.75;100.00;95076.91;5113987;28;20480;-60
2022/09/11 03:48:20;;;;;;;0.50;0.40;;;;;;;19.55;100.00;95075.06;5114142;28;20431;-60
2022/09/11 03:50:50;;;;;;;0.50;0.30;;;;;;;19.80;100.00;95068.63;5113849;28;20411;-60
2022/09/11 03:53:19;;;;;;;0.60;0.60;;;;;;;19.96;100.00;95079.53;5113424;28;20438;-60
2022/09/11 03:55:48;;;;;;;0.60;0.50;;;;;;;19.93;100.00;95080.22;5113783;27;20411;-60
2022/09/11 03:58:17;;;;;;;0.43;0.30;;;;;;;19.99;100.00;95084.22;5113658;28;20935;-60
2022/09/11 04:00:46;;;;;;;0.63;0.50;;;;;;;19.73;100.00;95089.91;5113275;28;20493;-60
2022/09/11 04:03:16;;;;;;;0.40;0.30;;;;;;;19.72;100.00;95091.03;5113316;28;20431;-60
2022/09/11 04:05:58;;;;;;;0.50;0.30;;;;;;;19.91;100.00;95093.97;5113546;28;20455;-60
2022/09/11 04:08:26;;;;;;;0.50;0.50;;;;;;;19.84;100.00;95082.97;5113134;28;20435;-60
2022/09/11 04:10:59;;;;;;;0.40;0.30;;;;;;;19.89;100.00;95079.28;5113220;28;20419;-60
2022/09/11 04:13:29;;;;;;;0.40;0.30;;;;;;;19.85;100.00;95073.00;5113167;28;20847;-60
2022/09/11 04:16:01;;;;;;;0.50;0.33;;;;;;;19.94;100.00;95084.44;5113402;28;20419;-60
2022/09/11 04:18:31;;;;;;;0.40;0.30;;;;;;;20.06;100.00;95081.81;5113021;28;20518;-60
2022/09/11 04:21:03;;;;;;;0.40;0.30;;;;;;;20.02;100.00;95095.13;5112895;28;20980;-60
2022/09/11 04:23:32;;;;;;;1.23;0.30;;;;;;;20.00;100.00;95085.81;5113231;28;20804;-59
2022/09/11 04:26:01;;;;;;;0.40;0.30;;;;;;;20.18;100.00;95087.19;5113228;28;20484;-60
2022/09/11 04:28:31;;;;;;;0.50;0.37;;;;;;;20.15;100.00;95085.97;5113120;28;20458;-60
2022/09/11 04:31:02;;;;;;;0.97;0.63;;;;;;;20.33;100.00;95093.84;5112760;28;20419;-60
2022/09/11 04:33:30;;;;;;;0.50;0.30;;;;;;;20.49;100.00;95086.69;5112749;28;20424;-60
2022/09/11 04:36:06;;;;;;;0.40;0.30;;;;;;;20.29;100.00;95093.72;5112964;28;20438;-60
2022/09/11 04:38:35;;;;;;;0.90;0.30;;;;;;;20.32;100.00;95090.38;5112721;28;20434;-60
2022/09/11 04:41:05;;;;;;;0.50;0.30;;;;;;;20.41;100.00;95087.56;5112574;28;20455;-60
2022/09/11 04:43:34;;;;;;;0.80;0.43;;;;;;;20.41;100.00;95080.28;5112577;28;20427;-60
2022/09/11 04:46:03;;;;;;;0.50;0.40;;;;;;;20.55;100.00;95094.19;5111805;28;20427;-60
2022/09/11 04:48:32;;;;;;;0.77;0.77;;;;;;;20.39;100.00;95092.50;5112428;28;20921;-60
2022/09/11 04:51:02;;;;;;;0.50;0.40;;;;;;;20.62;100.00;95091.72;5112863;28;20916;-60
2022/09/11 04:53:32;;;;;;;0.40;0.20;;;;;;;20.71;100.00;95081.63;5112462;28;20436;-59
2022/09/11 04:56:06;;;;;;;15.50;0.47;;;;;;;20.70;100.00;95096.19;5112313;28;20431;-60
2022/09/11 04:58:35;;;;;;;0.40;0.30;;;;;;;20.73;100.00;95095.53;5112134;28;20435;-59
2022/09/11 05:01:06;;;;;;;0.50;0.30;;;;;;;20.44;100.00;95087.66;5112669;28;20466;-60
2022/09/11 05:03:35;;;;;;;0.50;0.30;;;;;;;20.74;100.00;95083.66;5112149;28;20470;-59
2022/09/11 05:08:53;;;;;;;0.40;0.20;;;;;;;20.94;100.00;95087.31;5112230;28;20434;-60
2022/09/11 05:11:21;;;;;;;0.50;0.40;;;;;;;21.02;100.00;95089.09;5112290;28;20424;-60
2022/09/11 05:13:50;;;;;;;0.40;0.30;;;;;;;21.13;100.00;95087.50;5112502;28;20431;-60
2022/09/11 05:16:18;;;;;;;0.40;0.30;;;;;;;21.31;100.00;95086.09;5112227;28;20424;-60
2022/09/11 05:18:51;;;;;;;0.40;0.30;;;;;;;21.37;100.00;95079.38;5112088;28;20423;-60
2022/09/11 05:21:21;;;;;;;0.50;0.37;;;;;;;21.37;100.00;95081.28;5112044;28;20467;-60
2022/09/11 05:23:51;;;;;;;0.60;0.57;;;;;;;20.82;100.00;95084.66;5112249;28;20869;-60
2022/09/11 05:26:22;;;;;;;0.50;0.40;;;;;;;20.05;100.00;95032.59;5112090;28;20480;-60
2022/09/11 05:28:54;;;;;;;0.50;0.40;;;;;;;20.21;100.00;95083.84;5111999;28;20469;-59
2022/09/11 05:31:24;;;;;;;0.70;0.70;;;;;;;19.97;100.00;95087.28;5112047;28;20423;-60
2022/09/11 05:33:55;;;;;;;1.63;1.43;;;;;;;19.84;100.00;95091.06;5112277;28;20427;-60
2022/09/11 05:36:25;;;;;;;2.63;1.83;;;;;;;20.14;100.00;95088.97;5112404;28;20415;-60
2022/09/11 05:38:53;;;;;;;4.67;2.40;;;;;;;19.88;100.00;95091.97;5112202;28;20820;-60
2022/09/11 05:41:23;;;;;;;1.43;1.33;;;;;;;19.67;100.00;95083.16;5111954;28;20459;-59
2022/09/11 05:43:51;;;;;;;3.23;2.20;;;;;;;19.54;100.00;95089.63;5111840;28;20436;-60
2022/09/11 05:46:21;;;;;;;3.97;1.60;;;;;;;19.86;100.00;95083.44;5112218;28;20426;-60
2022/09/11 05:48:49;;;;;;;0.50;0.50;;;;;;;20.08;100.00;95077.66;5111917;28;20440;-59
2022/09/11 05:51:20;;;;;;;1.10;0.73;;;;;;;20.14;100.00;95076.31;5111922;28;20415;-59
2022/09/11 05:53:49;;;;;;;0.80;0.80;;;;;;;20.97;100.00;95034.66;5111813;28;20423;-60
2022/09/11 05:56:19;;;;;;;4.83;0.77;;;;;;;21.52;100.00;95072.44;5111634;28;20470;-58
2022/09/11 05:58:50;;;;;;;0.40;0.30;;;;;;;20.99;100.00;94997.38;5114549;28;21109;-58
2022/09/11 06:01:21;;;;;;;0.87;0.87;;;;;;;21.74;100.00;95061.09;5115861;28;20449;-54
2022/09/11 06:03:50;;;;;;;0.90;0.50;;;;;;;22.08;100.00;95065.09;5115618;28;20898;-55
2022/09/11 06:06:21;;;;;;;0.80;0.73;;;;;;;22.39;100.00;95056.97;5115597;28;20951;-55
2022/09/11 06:08:50;;;;;;;1.27;0.90;;;;;;;23.13;100.00;95055.16;5115537;28;20434;-53
2022/09/11 06:11:20;;;;;;;0.40;0.40;;;;;;;23.82;100.00;95048.81;5115466;28;20415;-53
2022/09/11 06:13:51;;;;;;;0.67;0.60;;;;;;;23.82;100.00;95051.53;5115752;28;20794;-53
2022/09/11 06:16:21;;;;;;;0.80;0.60;;;;;;;24.35;100.00;95047.06;5114999;28;20426;-53
2022/09/11 06:18:51;;;;;;;1.47;0.60;;;;;;;24.63;100.00;95044.78;5114646;28;20472;-53
2022/09/11 06:21:22;;;;;;;0.63;0.63;;;;;;;24.79;100.00;95055.50;5114628;28;20415;-53
2022/09/11 06:23:52;;;;;;;0.77;0.60;;;;;;;24.86;100.00;95059.09;5114574;28;20450;-53
2022/09/11 06:26:22;;;;;;;0.60;0.50;;;;;;;25.64;100.00;95058.19;5115321;28;20430;-53
2022/09/11 06:28:52;;;;;;;0.83;0.47;;;;;;;25.70;99.47;95061.38;5114527;28;20805;-53
2022/09/11 06:31:23;;;;;;;0.40;0.30;;;;;;;25.67;93.73;95043.09;5115093;28;20427;-53
2022/09/11 06:33:51;;;;;;;0.50;0.40;;;;;;;25.95;93.85;95050.75;5113728;28;21035;-54
2022/09/11 06:36:21;;;;;;;0.70;0.70;;;;;;;26.52;89.61;95061.00;5114706;28;20459;-54
2022/09/11 06:38:54;;;;;;;1.07;0.97;;;;;;;26.33;88.29;95062.03;5113353;28;20431;-54
2022/09/11 06:41:23;;;;;;;0.60;0.50;;;;;;;26.51;86.30;95056.72;5112631;28;20436;-54
2022/09/11 06:43:53;;;;;;;0.50;0.40;;;;;;;26.59;76.90;95016.78;5112769;28;20427;-54
2022/09/11 06:46:23;;;;;;;0.40;0.30;;;;;;;27.82;70.86;95060.19;5111591;28;20424;-55
2022/09/11 06:48:53;;;;;;;0.57;0.50;;;;;;;27.20;70.23;94986.84;5112322;27;20424;-55
2022/09/11 06:51:22;;;;;;;1.37;1.37;;;;;;;27.58;69.77;95008.00;5112624;28;20771;-55
2022/09/11 06:53:55;;;;;;;0.60;0.50;;;;;;;27.50;71.30;94987.34;5112888;28;20856;-55
2022/09/11 06:56:23;;;;;;;0.67;0.67;;;;;;;27.90;68.04;95040.78;5114316;28;20476;-55
2022/09/11 06:58:53;;;;;;;0.80;0.53;;;;;;;27.48;66.19;95030.53;5114654;28;20441;-55
2022/09/11 07:01:22;;;;;;;0.80;0.60;;;;;;;28.56;63.41;95052.94;5114660;28;20423;-55
2022/09/11 07:03:52;;;;;;;0.50;0.40;;;;;;;27.80;64.93;95051.63;5114611;28;20473;-56
2022/09/11 07:06:22;;;;;;;0.57;0.40;;;;;;;28.02;65.28;95024.06;5114199;28;20424;-56
2022/09/11 07:08:52;;;;;;;0.90;0.80;;;;;;;27.53;66.78;95051.94;5113752;28;20419;-56
2022/09/11 07:11:20;;;;;;;0.40;0.30;;;;;;;28.11;63.18;95045.47;5114281;28;20444;-56
2022/09/11 07:13:49;;;;;;;1.10;0.70;;;;;;;28.43;59.51;95056.44;5114288;28;20424;-55
2022/09/11 07:16:18;;;;;;;0.87;0.50;;;;;;;27.95;59.46;94966.84;5114126;28;20439;-56
2022/09/11 07:18:47;;;;;;;0.50;0.40;;;;;;;29.10;56.62;95032.59;5114138;28;20428;-55
2022/09/11 07:21:17;;;;;;;0.40;0.30;;;;;;;29.36;53.97;95045.03;5114501;28;20903;-56
2022/09/11 07:23:48;;;;;;;0.40;0.40;;;;;;;29.21;52.58;94991.66;5113919;28;20474;-56
2022/09/11 07:26:17;;;;;;;0.40;0.30;;;;;;;30.21;52.38;94993.44;5114220;28;20436;-56
2022/09/11 07:28:47;;;;;;;0.40;0.30;;;;;;;31.17;48.91;95048.91;5114135;28;20422;-56
2022/09/11 07:31:19;;;;;;;0.30;0.30;;;;;;;31.06;45.50;95048.25;5113898;28;20434;-56
2022/09/11 07:33:49;;;;;;;23.40;0.67;;;;;;;30.85;46.23;95051.16;5114281;28;20880;-56
2022/09/11 07:36:19;;;;;;;0.90;0.90;;;;;;;30.08;47.00;94995.88;5114338;28;20940;-56
2022/09/11 07:38:49;;;;;;;0.40;0.30;;;;;;;30.60;47.10;95050.59;5113745;28;20647;-56
2022/09/11 07:41:20;;;;;;;0.50;0.50;;;;;;;30.51;47.66;95053.03;5114012;28;20424;-56
2022/09/11 07:43:52;;;;;;;0.40;0.30;;;;;;;30.50;48.51;95048.72;5113805;28;20468;-56
2022/09/11 07:46:23;;;;;;;0.50;0.40;;;;;;;31.41;46.76;95041.59;5113706;28;20944;-56
2022/09/11 07:48:51;;;;;;;0.40;0.30;;;;;;;31.96;43.96;95038.56;5113791;28;20417;-56
2022/09/11 07:51:20;;;;;;;0.67;0.40;;;;;;;31.95;43.28;95037.03;5113632;28;20433;-56
2022/09/11 07:53:50;;;;;;;0.40;0.37;;;;;;;32.12;42.63;95016.84;5114121;28;20963;-56
2022/09/11 07:56:22;;;;;;;0.57;0.30;;;;;;;32.75;41.02;95028.78;5113703;28;20854;-56
2022/09/11 07:58:51;;;;;;;0.80;0.40;;;;;;;32.93;41.30;95023.75;5113480;28;20421;-56
2022/09/11 08:01:23;;;;;;;1.00;0.40;;;;;;;32.32;41.57;94965.59;5113324;28;20476;-56
2022/09/11 08:03:55;;;;;;;0.40;0.40;;;;;;;33.39;37.96;95027.63;5113273;28;20481;-56
2022/09/11 08:06:25;;;;;;;0.40;0.30;;;;;;;33.97;37.72;95023.31;5113450;28;20446;-55
2022/09/11 08:08:55;;;;;;;0.47;0.40;;;;;;;33.35;40.61;95027.69;5113215;28;20432;-56
2022/09/11 08:11:25;;;;;;;0.63;0.63;;;;;;;32.56;38.80;95022.03;5113427;27;20430;-56
2022/09/11 08:13:54;;;;;;;0.40;0.33;;;;;;;33.20;35.24;94991.50;5113108;27;20441;-55
2022/09/11 08:16:26;;;;;;;0.47;0.40;;;;;;;33.85;35.64;95017.25;5113376;28;20426;-55
2022/09/11 08:18:55;;;;;;;0.40;0.40;;;;;;;34.04;33.83;95017.63;5112813;28;20434;-55
2022/09/11 08:21:25;;;;;;;0.30;0.30;;;;;;;34.42;33.24;95011.28;5112833;28;20427;-55
2022/09/11 08:23:53;;;;;;;0.50;0.43;;;;;;;34.25;32.25;95017.19;5113147;28;20469;-55
2022/09/11 08:26:25;;;;;;;0.37;0.30;;;;;;;33.91;32.36;94957.03;5112730;28;20529;-55
2022/09/11 08:28:55;;;;;;;0.40;0.30;;;;;;;34.89;32.30;95008.94;5113037;28;20814;-55
2022/09/11 08:31:27;;;;;;;0.30;0.30;;;;;;;34.97;32.86;95007.53;5113112;28;20414;-55
2022/09/11 08:33:56;;;;;;;0.30;0.30;;;;;;;34.88;31.43;95010.16;5112654;28;20496;-54
2022/09/11 08:36:25;;;;;;;0.40;0.30;;;;;;;34.89;30.61;94995.16;5112729;28;20429;-53
2022/09/11 08:38:54;;;;;;;0.60;0.30;;;;;;;34.95;32.17;94990.69;5112917;28;20945;-53
2022/09/11 08:41:32;;;;;;;0.40;0.40;;;;;;;35.31;32.24;94987.75;5113023;28;20424;-54
2022/09/11 08:44:06;;;;;;;0.33;0.30;;;;;;;35.08;31.71;94955.72;5112730;28;20477;-54
2022/09/11 08:46:40;;;;;;;1.03;0.90;;;;;;;35.26;31.59;94938.69;5113099;28;20432;-54
2022/09/11 08:49:17;;;;;;;0.30;0.30;;;;;;;36.09;31.14;94978.00;5112340;28;20648;-54
2022/09/11 08:51:48;;;;;;;0.43;0.30;;;;;;;36.23;30.26;94976.78;5112697;28;20655;-54
2022/09/11 08:54:26;;;;;;;0.63;0.40;;;;;;;36.38;30.31;94969.59;5111101;28;20185;-54
2022/09/11 08:57:10;;;;;;;0.83;0.53;;;;;;;35.02;30.38;94978.69;5111465;28;20230;-54
2022/09/11 08:59:55;;;;;;;0.40;0.30;;;;;;;35.62;31.02;94964.03;5112253;28;20430;-54
2022/09/11 09:02:45;;;;;;;0.37;0.30;;;;;;;35.19;31.43;94965.69;5112101;28;20199;-54
2022/09/11 09:05:25;;;;;;;0.50;0.37;;;;;;;34.93;29.02;94960.06;5112366;28;20211;-54
2022/09/11 09:08:11;;;;;;;0.40;0.30;;;;;;;35.07;31.08;94899.06;5112157;28;20191;-54
2022/09/11 09:10:50;;;;;;;0.40;0.30;;;;;;;35.94;28.55;94954.81;5112021;28;20205;-54
2022/09/11 09:13:36;;;;;;;2.47;0.40;;;;;;;35.03;28.35;94925.94;5111988;28;20203;-54
2022/09/11 09:16:19;;;;;;;0.50;0.40;;;;;;;35.65;27.64;94941.09;5112210;28;20195;-54
2022/09/11 09:18:54;;;;;;;0.50;0.50;;;;;;;34.99;28.78;94941.75;5111811;28;20761;-54
2022/09/11 09:21:29;;;;;;;0.50;0.40;;;;;;;35.64;27.48;94947.84;5111813;28;20187;-54
2022/09/11 09:24:03;;;;;;;11.10;0.40;;;;;;;35.92;27.25;94935.16;5112009;28;20206;-54
2022/09/11 09:26:37;;;;;;;0.40;0.30;;;;;;;36.01;27.75;94934.50;5112283;28;20194;-54
2022/09/11 09:29:09;;;;;;;0.30;0.30;;;;;;;35.85;28.51;94909.78;5112400;28;20197;-54
2022/09/11 09:31:40;;;;;;;0.40;0.33;;;;;;;35.72;27.00;94932.59;5112376;28;20687;-54
2022/09/11 09:34:15;;;;;;;0.30;0.30;;;;;;;36.58;26.05;94925.19;5115818;28;20667;-54
2022/09/11 09:36:50;;;;;;;0.30;0.30;;;;;;;37.48;25.58;94925.91;5116537;28;20200;-53
2022/09/11 09:39:21;;;;;;;0.40;0.30;;;;;;;37.63;25.32;94914.31;5116697;28;20274;-53
2022/09/11 09:42:08;;;;;;;0.30;0.30;;;;;;;37.88;24.50;94914.13;5116242;28;20202;-53
2022/09/11 09:44:53;;;;;;;0.40;0.40;;;;;;;37.80;24.43;94915.63;5116064;27;20219;-53
2022/09/11 09:47:22;;;;;;;0.40;0.40;;;;;;;36.21;24.83;94905.47;5116009;28;20195;-53
2022/09/11 09:49:53;;;;;;;0.40;0.30;;;;;;;36.79;26.65;94907.88;5115925;28;20213;-54
2022/09/11 09:52:23;;;;;;;0.40;0.30;;;;;;;36.84;24.54;94904.53;5116281;28;20187;-54
2022/09/11 09:54:57;;;;;;;0.40;0.30;;;;;;;36.64;27.15;94904.06;5115839;28;20218;-54
2022/09/11 09:57:30;;;;;;;0.40;0.40;;;;;;;36.10;26.13;94916.06;5115713;28;20277;-53
2022/09/11 10:00:05;;;;;;;0.60;0.40;;;;;;;35.43;26.25;94896.06;5115880;27;20206;-53
2022/09/11 10:02:38;;;;;;;0.30;0.30;;;;;;;36.61;26.74;94900.19;5116144;28;20216;-53
2022/09/11 10:05:17;;;;;;;0.30;0.30;;;;;;;37.14;24.78;94903.84;5115625;28;20697;-54
2022/09/11 10:07:48;;;;;;;0.50;0.30;;;;;;;38.11;23.96;94894.22;5115610;28;20191;-54
2022/09/11 10:10:26;;;;;;;0.30;0.20;;;;;;;38.31;24.47;94847.53;5115619;28;20188;-54
2022/09/11 10:12:58;;;;;;;0.43;0.40;;;;;;;36.89;25.71;94885.38;5115774;28;20665;-53
2022/09/11 10:15:49;;;;;;;0.40;0.30;;;;;;;36.87;24.43;94885.06;5115423;28;20627;-53
2022/09/11 10:18:42;;;;;;;0.50;0.45;;;;;;;37.08;24.35;94883.56;5115577;28;20223;-53
2022/09/11 10:21:21;;;;;;;0.40;0.30;;;;;;;37.64;25.05;94877.13;5111958;28;20200;-53
2022/09/11 10:23:53;;;;;;;0.32;0.32;;;;;;;37.18;24.35;94887.16;5115577;28;20221;-53
2022/09/11 10:26:27;;;;;;;0.40;0.30;;;;;;;38.46;23.56;94875.41;5115344;28;20197;-53
2022/09/11 10:29:01;;;;;;;0.30;0.30;;;;;;;38.88;23.07;94878.38;5115348;28;20188;-53
2022/09/11 10:31:30;;;;;;;0.25;0.22;;;;;;;38.39;23.83;94876.47;5115197;28;20199;-53
2022/09/11 10:33:59;;;;;;;0.57;0.57;;;;;;;36.11;25.74;94862.44;5115089;28;20189;-54
2022/09/11 10:36:30;;;;;;;0.40;0.30;;;;;;;36.30;26.11;94875.22;5115467;28;20189;-53
2022/09/11 10:39:01;;;;;;;0.88;0.88;;;;;;;36.11;26.22;94872.69;5115443;28;20192;-54
2022/09/11 10:41:33;;;;;;;0.30;0.30;;;;;;;34.89;28.06;94879.47;5115039;28;20729;-54
2022/09/11 10:44:03;;;;;;;0.43;0.43;;;;;;;33.98;29.04;94876.34;5114075;28;20207;-54
2022/09/11 10:46:35;;;;;;;0.30;0.20;;;;;;;35.78;26.85;94874.13;5115441;28;20191;-53
2022/09/11 10:49:17;;;;;;;0.30;0.30;;;;;;;37.35;26.57;94867.13;5114894;28;20247;-53
2022/09/11 10:52:01;;;;;;;0.40;0.40;;;;;;;37.66;24.34;94863.63;5114928;28;20195;-54
2022/09/11 10:54:46;;;;;;;0.40;0.30;;;;;;;38.09;24.40;94863.47;5114984;28;20192;-53
2022/09/11 10:57:21;;;;;;;0.30;0.30;;;;;;;36.95;24.68;94863.50;5114676;28;20330;-53
2022/09/11 11:00:12;;;;;;;0.40;0.30;;;;;;;36.32;25.49;94866.47;5114632;28;20677;-53
2022/09/11 11:02:44;;;;;;;0.40;0.40;;;;;;;37.43;24.73;94865.69;5114605;28;20747;-54
2022/09/11 11:05:20;;;;;;;0.30;0.30;;;;;;;38.33;23.52;94863.72;5114456;28;20219;-53
2022/09/11 11:08:13;;;;;;;0.30;0.30;;;;;;;38.87;22.92;94855.44;5114796;28;20245;-54
2022/09/11 11:11:01;;;;;;;0.40;0.40;;;;;;;39.54;22.49;94848.84;5114769;27;20192;-54
2022/09/11 11:13:45;;;;;;;0.60;0.50;;;;;;;36.82;24.09;94852.50;5114237;28;20192;-54
2022/09/11 11:16:21;;;;;;;0.50;0.40;;;;;;;37.07;24.04;94850.84;5113914;28;20189;-55
2022/09/11 11:19:06;;;;;;;0.40;0.40;;;;;;;37.39;25.85;94842.91;5114167;28;20202;-55
2022/09/11 11:21:51;;;;;;;0.40;0.30;;;;;;;37.20;24.63;94829.41;5114403;28;20212;-54
2022/09/11 11:24:36;;;;;;;0.30;0.20;;;;;;;37.18;25.52;94827.13;5114308;28;20232;-54
2022/09/11 11:27:26;;;;;;;0.70;0.57;;;;;;;34.72;27.41;94839.47;5114045;28;20211;-55
2022/09/11 11:30:10;;;;;;;0.80;0.70;;;;;;;34.44;27.89;94842.94;5114000;28;20672;-54
2022/09/11 11:33:02;;;;;;;0.50;0.40;;;;;;;35.08;27.85;94833.75;5113992;27;20192;-54
2022/09/11 11:35:37;;;;;;;0.50;0.40;;;;;;;34.64;28.68;94829.84;5111064;28;20222;-54
2022/09/11 11:38:11;;;;;;;0.40;0.40;;;;;;;35.33;27.41;94831.00;5113838;28;20191;-54
2022/09/11 11:40:45;;;;;;;0.55;0.50;;;;;;;35.11;27.54;94823.81;5113920;28;20202;-55
2022/09/11 11:43:16;;;;;;;0.60;0.35;;;;;;;34.75;28.05;94827.56;5113981;28;20191;-55
2022/09/11 11:45:49;;;;;;;0.40;0.40;;;;;;;36.35;26.12;94820.66;5113744;28;20569;-55
2022/09/11 11:48:25;;;;;;;0.50;0.50;;;;;;;35.86;26.74;94814.78;5114188;28;20195;-55
2022/09/11 11:50:56;;;;;;;0.50;0.43;;;;;;;36.07;25.90;94734.09;5113988;28;20195;-55
2022/09/11 11:53:30;;;;;;;0.50;0.30;;;;;;;36.91;25.40;94807.59;5113470;28;20209;-54
2022/09/11 11:56:08;;;;;;;0.30;0.30;;;;;;;37.64;24.41;94799.69;5112919;28;20202;-54
2022/09/11 11:58:47;;;;;;;7.30;0.60;;;;;;;37.59;24.01;94789.22;5112623;28;20199;-54